createdAt,value
2019-05-06T00:01:10.716Z,66.89
2019-05-06T00:03:40.640Z,66.71
2019-05-06T00:06:10.546Z,66.64
2019-05-06T00:08:40.481Z,67.05
2019-05-06T00:11:10.415Z,67.33
2019-05-06T00:13:40.277Z,67.60
2019-05-06T00:16:10.209Z,67.89
2019-05-06T00:18:40.428Z,68.10
2019-05-06T00:21:10.346Z,68.12
2019-05-06T00:23:49.855Z,68.25
2019-05-06T00:26:38.030Z,68.30
2019-05-06T00:29:19.892Z,68.15
2019-05-06T00:31:49.812Z,68.10
2019-05-06T00:34:19.751Z,67.94
2019-05-06T00:36:49.615Z,68.08
2019-05-06T00:39:41.708Z,68.19
2019-05-06T00:42:49.414Z,68.33
2019-05-06T00:45:19.255Z,68.43
2019-05-06T00:47:49.091Z,68.50
2019-05-06T00:50:20.456Z,68.75
2019-05-06T00:52:51.277Z,68.73
2019-05-06T00:55:21.217Z,68.15
2019-05-06T00:57:51.130Z,68.24
2019-05-06T01:00:26.241Z,68.41
2019-05-06T01:02:56.182Z,68.43
2019-05-06T01:05:26.118Z,68.54
2019-05-06T01:07:56.341Z,68.74
2019-05-06T01:10:26.286Z,68.91
2019-05-06T01:13:07.571Z,68.97
2019-05-06T01:15:37.674Z,68.97
2019-05-06T01:18:07.595Z,68.97
2019-05-06T01:20:37.517Z,68.76
2019-05-06T01:23:07.466Z,68.72
2019-05-06T01:25:37.373Z,68.78
2019-05-06T01:28:07.288Z,68.55
2019-05-06T01:30:37.218Z,68.56
2019-05-06T01:33:07.056Z,68.82
2019-05-06T01:35:36.988Z,68.92
2019-05-06T01:38:27.998Z,68.96
2019-05-06T01:41:24.355Z,69.10
2019-05-06T01:43:54.690Z,69.10
2019-05-06T01:46:24.893Z,69.18
2019-05-06T01:48:54.824Z,69.28
2019-05-06T01:51:24.772Z,69.31
2019-05-06T01:53:54.728Z,69.33
2019-05-06T01:56:24.657Z,69.61
2019-05-06T01:58:54.587Z,69.88
2019-05-06T02:01:25.195Z,69.94
2019-05-06T02:03:55.227Z,70.07
2019-05-06T02:06:25.315Z,70.19
2019-05-06T02:08:55.233Z,70.21
2019-05-06T02:11:25.160Z,70.09
2019-05-06T02:13:55.403Z,70.21
2019-05-06T02:16:25.329Z,70.18
2019-05-06T02:18:55.187Z,70.09
2019-05-06T02:21:43.904Z,70.11
2019-05-06T02:24:20.359Z,69.96
2019-05-06T02:26:50.328Z,70.09
2019-05-06T02:29:24.493Z,70.10
2019-05-06T02:32:27.127Z,70.07
2019-05-06T02:34:58.060Z,70.10
2019-05-06T02:37:39.286Z,70.42
2019-05-06T02:40:24.964Z,70.66
2019-05-06T02:42:55.471Z,70.69
2019-05-06T02:45:25.473Z,70.69
2019-05-06T02:48:13.461Z,70.59
2019-05-06T02:51:04.404Z,70.75
2019-05-06T02:53:34.318Z,70.67
2019-05-06T02:56:04.618Z,70.60
2019-05-06T02:58:35.574Z,70.81
2019-05-06T03:01:05.478Z,70.66
2019-05-06T03:03:35.420Z,70.22
2019-05-06T03:06:05.350Z,70.66
2019-05-06T03:08:35.373Z,70.69
2019-05-06T03:11:05.299Z,70.75
2019-05-06T03:13:36.304Z,70.98
2019-05-06T03:16:06.420Z,71.01
2019-05-06T03:18:37.417Z,70.97
2019-05-06T03:21:26.333Z,70.68
2019-05-06T03:24:03.989Z,70.81
2019-05-06T03:26:33.541Z,71.04
2019-05-06T03:29:03.504Z,71.11
2019-05-06T03:31:36.511Z,71.11
2019-05-06T03:34:27.893Z,71.24
2019-05-06T03:36:40.768Z,71.26
2019-05-06T03:39:09.645Z,71.27
2019-05-06T03:41:39.576Z,70.93
2019-05-06T03:44:09.499Z,71.05
2019-05-06T03:46:57.267Z,70.96
2019-05-06T03:49:29.340Z,71.29
2019-05-06T03:51:59.205Z,71.54
2019-05-06T03:54:29.748Z,71.66
2019-05-06T03:57:02.996Z,71.79
2019-05-06T03:59:33.913Z,72.22
2019-05-06T04:02:05.179Z,72.49
2019-05-06T04:04:35.398Z,72.45
2019-05-06T04:07:05.582Z,72.54
2019-05-06T04:09:36.754Z,72.72
2019-05-06T04:12:07.861Z,72.64
2019-05-06T04:14:37.828Z,72.74
2019-05-06T04:17:39.015Z,72.76
2019-05-06T04:20:24.708Z,72.68
2019-05-06T04:23:16.781Z,72.29
2019-05-06T04:25:55.474Z,72.33
2019-05-06T04:28:28.531Z,72.21
2019-05-06T04:30:58.675Z,71.26
2019-05-06T04:33:29.345Z,71.57
2019-05-06T04:35:59.675Z,71.80
2019-05-06T04:38:29.960Z,71.66
2019-05-06T04:41:02.747Z,71.57
2019-05-06T04:43:33.655Z,71.78
2019-05-06T04:46:03.519Z,71.97
2019-05-06T04:48:33.756Z,72.12
2019-05-06T04:51:04.184Z,71.82
2019-05-06T04:53:34.251Z,71.91
2019-05-06T04:56:04.567Z,71.53
2019-05-06T04:58:35.806Z,71.41
2019-05-06T05:01:05.958Z,70.86
2019-05-06T05:03:35.895Z,70.95
2019-05-06T05:06:06.144Z,70.77
2019-05-06T05:08:39.034Z,70.62
2019-05-06T05:11:22.751Z,70.89
2019-05-06T05:14:13.352Z,70.59
2019-05-06T05:16:52.902Z,69.87
2019-05-06T05:19:23.775Z,70.35
2019-05-06T05:22:05.853Z,70.32
2019-05-06T05:24:37.473Z,69.79
2019-05-06T05:27:07.874Z,70.28
2019-05-06T05:29:38.438Z,70.60
2019-05-06T05:32:09.024Z,70.62
2019-05-06T05:34:40.795Z,70.26
2019-05-06T05:37:12.116Z,70.37
2019-05-06T05:39:42.591Z,69.84
2019-05-06T05:42:24.927Z,70.44
2019-05-06T05:44:54.859Z,70.39
2019-05-06T05:47:25.112Z,70.51
2019-05-06T05:50:04.636Z,70.84
2019-05-06T05:52:34.583Z,70.82
2019-05-06T05:55:04.641Z,69.77
2019-05-06T05:57:34.975Z,69.77
2019-05-06T06:00:05.766Z,69.78
2019-05-06T06:02:35.700Z,69.80
2019-05-06T06:05:05.726Z,69.53
2019-05-06T06:07:35.793Z,69.10
2019-05-06T06:10:33.204Z,69.30
2019-05-06T06:13:03.323Z,70.01
2019-05-06T06:15:44.790Z,70.01
2019-05-06T06:18:22.576Z,69.66
2019-05-06T06:21:20.770Z,69.42
2019-05-06T06:23:43.987Z,69.25
2019-05-06T06:26:13.929Z,69.57
2019-05-06T06:28:43.858Z,69.32
2019-05-06T06:31:25.568Z,68.36
2019-05-06T06:34:01.940Z,68.59
2019-05-06T06:36:41.944Z,68.33
2019-05-06T06:39:16.157Z,68.39
2019-05-06T06:41:46.072Z,68.79
2019-05-06T06:44:18.986Z,68.93
2019-05-06T06:46:48.917Z,68.56
2019-05-06T06:49:19.210Z,68.61
2019-05-06T06:51:49.152Z,68.68
2019-05-06T06:54:19.362Z,67.77
2019-05-06T06:57:08.963Z,68.31
2019-05-06T06:59:44.371Z,67.91
2019-05-06T07:02:29.924Z,68.56
2019-05-06T07:05:22.456Z,67.67
2019-05-06T07:07:47.183Z,67.75
2019-05-06T07:10:32.913Z,67.53
2019-05-06T07:13:03.111Z,67.51
2019-05-06T07:15:33.822Z,67.23
2019-05-06T07:18:04.961Z,67.57
2019-05-06T07:20:42.933Z,66.85
2019-05-06T07:23:26.308Z,66.92
2019-05-06T07:25:56.227Z,66.42
2019-05-06T07:28:26.528Z,66.83
2019-05-06T07:30:56.565Z,67.53
2019-05-06T07:33:26.487Z,65.84
2019-05-06T07:35:56.754Z,65.75
2019-05-06T07:38:26.688Z,66.11
2019-05-06T07:41:04.703Z,66.65
2019-05-06T07:43:52.595Z,65.51
2019-05-06T07:46:44.909Z,65.93
2019-05-06T07:49:14.863Z,67.29
2019-05-06T07:51:44.786Z,68.11
2019-05-06T07:54:15.046Z,67.50
2019-05-06T07:56:45.262Z,67.29
2019-05-06T07:59:17.068Z,67.86
2019-05-06T08:01:47.049Z,68.98
2019-05-06T08:04:17.206Z,69.54
2019-05-06T08:06:47.119Z,69.61
2019-05-06T08:09:17.047Z,68.80
2019-05-06T08:11:46.985Z,68.29
2019-05-06T08:14:16.904Z,69.27
2019-05-06T08:16:54.754Z,67.80
2019-05-06T08:19:24.695Z,68.98
2019-05-06T08:21:56.840Z,69.55
2019-05-06T08:24:26.704Z,69.91
2019-05-06T08:26:56.638Z,69.48
2019-05-06T08:29:26.559Z,69.22
2019-05-06T08:31:56.413Z,70.27
2019-05-06T08:34:26.857Z,67.98
2019-05-06T08:37:05.729Z,68.50
2019-05-06T08:39:35.683Z,68.66
2019-05-06T08:42:05.604Z,68.87
2019-05-06T08:44:35.473Z,68.80
2019-05-06T08:47:05.412Z,69.37
2019-05-06T08:49:53.182Z,68.92
2019-05-06T08:52:27.458Z,68.24
2019-05-06T08:55:02.342Z,68.59
2019-05-06T08:57:33.050Z,67.10
2019-05-06T09:00:03.581Z,67.55
2019-05-06T09:02:35.489Z,68.75
2019-05-06T09:05:05.761Z,68.51
2019-05-06T09:07:35.732Z,66.90
2019-05-06T09:10:05.724Z,67.72
2019-05-06T09:12:35.566Z,67.34
2019-05-06T09:15:06.118Z,65.84
2019-05-06T09:17:36.033Z,65.30
2019-05-06T09:20:06.075Z,65.15
2019-05-06T09:22:36.401Z,64.77
2019-05-06T09:25:06.504Z,65.38
2019-05-06T09:27:53.923Z,64.80
2019-05-06T09:30:37.058Z,65.76
2019-05-06T09:33:07.155Z,64.90
2019-05-06T09:35:37.091Z,65.13
2019-05-06T09:38:07.002Z,64.99
2019-05-06T09:40:38.486Z,64.11
2019-05-06T09:43:13.356Z,64.85
2019-05-06T09:45:43.302Z,65.11
2019-05-06T09:48:35.245Z,64.33
2019-05-06T09:51:05.094Z,64.20
2019-05-06T09:53:43.073Z,63.46
2019-05-06T09:56:26.004Z,63.96
2019-05-06T09:58:56.009Z,64.88
2019-05-06T10:01:25.950Z,63.88
2019-05-06T10:03:56.549Z,62.70
2019-05-06T10:06:26.400Z,62.76
2019-05-06T10:08:56.342Z,63.67
2019-05-06T10:11:26.308Z,63.05
2019-05-06T10:13:56.228Z,63.84
2019-05-06T10:16:26.273Z,63.26
2019-05-06T10:18:56.361Z,63.06
2019-05-06T10:21:26.311Z,63.72
2019-05-06T10:23:58.258Z,63.03
2019-05-06T10:26:32.612Z,63.90
2019-05-06T10:29:22.799Z,64.27
2019-05-06T10:32:00.504Z,64.59
2019-05-06T10:34:32.676Z,64.26
2019-05-06T10:37:25.283Z,64.37
2019-05-06T10:40:03.385Z,64.66
2019-05-06T10:42:42.907Z,63.93
2019-05-06T10:45:23.929Z,64.26
2019-05-06T10:47:53.915Z,63.39
2019-05-06T10:50:23.844Z,63.22
2019-05-06T10:53:13.561Z,65.13
2019-05-06T10:55:46.133Z,66.53
2019-05-06T10:58:16.440Z,67.38
2019-05-06T11:00:47.446Z,65.77
2019-05-06T11:03:22.679Z,66.25
2019-05-06T11:05:53.639Z,66.20
2019-05-06T11:08:23.714Z,67.32
2019-05-06T11:10:54.260Z,67.40
2019-05-06T11:13:24.606Z,67.08
2019-05-06T11:15:55.600Z,66.21
2019-05-06T11:18:26.982Z,66.82
2019-05-06T11:20:56.866Z,65.43
2019-05-06T11:23:28.173Z,64.15
2019-05-06T11:25:58.677Z,63.58
2019-05-06T11:28:47.258Z,62.42
2019-05-06T11:31:33.226Z,62.21
2019-05-06T11:34:25.074Z,62.24
2019-05-06T11:37:15.055Z,61.56
2019-05-06T11:39:44.575Z,61.41
2019-05-06T11:42:28.115Z,62.51
2019-05-06T11:44:46.005Z,60.61
2019-05-06T11:47:15.872Z,60.15
2019-05-06T11:49:45.827Z,59.90
2019-05-06T11:52:16.710Z,60.73
2019-05-06T11:54:46.629Z,60.81
2019-05-06T11:57:16.797Z,60.39
2019-05-06T11:59:46.931Z,60.86
2019-05-06T12:02:20.051Z,58.78
2019-05-06T12:04:49.991Z,58.13
2019-05-06T12:07:20.052Z,59.06
2019-05-06T12:09:49.928Z,57.43
2019-05-06T12:12:20.107Z,58.32
2019-05-06T12:14:52.501Z,58.58
2019-05-06T12:17:22.304Z,57.19
2019-05-06T12:19:53.006Z,58.70
2019-05-06T12:22:24.755Z,59.74
2019-05-06T12:24:54.528Z,60.20
2019-05-06T12:27:43.039Z,57.54
2019-05-06T12:30:14.665Z,57.11
2019-05-06T12:32:52.675Z,58.45
2019-05-06T12:35:22.594Z,58.81
2019-05-06T12:37:55.582Z,56.91
2019-05-06T12:40:26.335Z,57.48
2019-05-06T12:43:15.261Z,59.64
2019-05-06T12:45:47.520Z,57.55
2019-05-06T12:48:24.526Z,56.65
2019-05-06T12:50:54.928Z,57.61
2019-05-06T12:53:24.788Z,57.02
2019-05-06T12:55:55.010Z,56.73
2019-05-06T12:58:24.905Z,56.21
2019-05-06T13:00:54.838Z,57.06
2019-05-06T13:03:24.783Z,57.67
2019-05-06T13:05:54.844Z,57.47
2019-05-06T13:08:32.433Z,55.88
2019-05-06T13:10:56.718Z,57.33
2019-05-06T13:13:26.540Z,56.69
2019-05-06T13:15:57.528Z,57.76
2019-05-06T13:18:27.462Z,57.11
2019-05-06T13:20:57.691Z,56.44
2019-05-06T13:23:35.153Z,56.82
2019-05-06T13:26:05.243Z,57.16
2019-05-06T13:28:38.523Z,57.90
2019-05-06T13:31:19.377Z,55.76
2019-05-06T13:33:55.309Z,56.63
2019-05-06T13:36:25.294Z,56.03
2019-05-06T13:39:09.609Z,56.05
2019-05-06T13:41:26.879Z,56.21
2019-05-06T13:44:06.351Z,57.10
2019-05-06T13:46:39.493Z,57.21
2019-05-06T13:49:47.085Z,57.08
2019-05-06T13:52:22.792Z,56.95
2019-05-06T13:54:52.969Z,57.32
2019-05-06T13:57:22.991Z,55.56
2019-05-06T13:59:53.444Z,56.36
2019-05-06T14:02:43.681Z,55.12
2019-05-06T14:05:13.525Z,55.87
2019-05-06T14:07:43.636Z,53.25
2019-05-06T14:10:14.813Z,53.61
2019-05-06T14:12:44.671Z,53.40
2019-05-06T14:15:15.553Z,52.48
2019-05-06T14:17:45.490Z,50.78
2019-05-06T14:20:15.984Z,51.89
2019-05-06T14:22:46.182Z,52.81
2019-05-06T14:25:44.199Z,51.68
2019-05-06T14:28:32.970Z,51.71
2019-05-06T14:31:06.608Z,52.34
2019-05-06T14:33:36.553Z,52.04
2019-05-06T14:36:06.443Z,54.33
2019-05-06T14:38:36.330Z,53.55
2019-05-06T14:41:12.866Z,53.98
2019-05-06T14:43:43.011Z,51.36
2019-05-06T14:46:13.048Z,51.42
2019-05-06T14:48:43.740Z,52.47
2019-05-06T14:51:15.148Z,51.85
2019-05-06T14:53:45.199Z,51.76
2019-05-06T14:56:43.337Z,51.20
2019-05-06T14:59:13.237Z,52.06
2019-05-06T15:01:45.444Z,50.34
2019-05-06T15:04:15.426Z,50.34
2019-05-06T15:06:45.296Z,50.37
2019-05-06T15:09:15.326Z,51.72
2019-05-06T15:11:45.201Z,51.52
2019-05-06T15:14:15.071Z,51.06
2019-05-06T15:16:44.957Z,52.06
2019-05-06T15:19:15.174Z,52.61
2019-05-06T15:21:45.752Z,52.73
2019-05-06T15:24:15.592Z,52.32
2019-05-06T15:26:45.779Z,52.56
2019-05-06T15:29:15.649Z,54.57
2019-05-06T15:32:13.249Z,56.43
2019-05-06T15:35:02.519Z,57.57
2019-05-06T15:37:54.820Z,58.72
2019-05-06T15:40:32.632Z,57.48
2019-05-06T15:42:56.397Z,57.69
2019-05-06T15:45:26.551Z,57.57
2019-05-06T15:47:56.869Z,57.52
2019-05-06T15:50:26.719Z,57.79
2019-05-06T15:52:56.581Z,58.14
2019-05-06T15:55:26.951Z,60.29
2019-05-06T15:57:56.905Z,65.53
2019-05-06T16:00:29.335Z,69.67
2019-05-06T16:02:59.279Z,72.43
2019-05-06T16:05:31.114Z,73.92
2019-05-06T16:08:02.724Z,76.22
2019-05-06T16:10:37.920Z,76.63
2019-05-06T16:13:03.966Z,77.23
2019-05-06T16:15:34.012Z,78.12
2019-05-06T16:18:04.390Z,77.61
2019-05-06T16:20:34.586Z,77.89
2019-05-06T16:23:33.102Z,77.37
2019-05-06T16:26:03.188Z,78.07
2019-05-06T16:28:33.107Z,78.62
2019-05-06T16:31:03.046Z,79.32
2019-05-06T16:33:34.754Z,79.29
2019-05-06T16:36:04.694Z,79.29
2019-05-06T16:38:34.651Z,78.29
2019-05-06T16:41:12.388Z,78.57
2019-05-06T16:43:36.084Z,78.94
2019-05-06T16:46:06.383Z,79.15
2019-05-06T16:48:37.183Z,79.44
2019-05-06T16:51:07.150Z,79.20
2019-05-06T16:53:37.015Z,79.22
2019-05-06T16:56:16.889Z,78.89
2019-05-06T16:58:52.528Z,78.57
2019-05-06T17:01:22.246Z,78.90
2019-05-06T17:04:17.176Z,79.24
2019-05-06T17:06:47.228Z,79.47
2019-05-06T17:09:23.627Z,79.69
2019-05-06T17:11:48.918Z,79.48
2019-05-06T17:14:18.874Z,79.67
2019-05-06T17:16:48.799Z,79.85
2019-05-06T17:19:18.982Z,80.18
2019-05-06T17:21:48.796Z,79.75
2019-05-06T17:24:18.654Z,79.86
2019-05-06T17:26:48.614Z,79.92
2019-05-06T17:29:37.441Z,80.23
2019-05-06T17:32:25.131Z,80.81
2019-05-06T17:34:57.627Z,80.83
2019-05-06T17:37:45.360Z,80.44
2019-05-06T17:40:16.886Z,80.71
2019-05-06T17:42:47.103Z,80.76
2019-05-06T17:45:35.348Z,81.01
2019-05-06T17:48:12.766Z,80.85
2019-05-06T17:50:44.749Z,79.94
2019-05-06T17:53:14.671Z,79.96
2019-05-06T17:55:44.573Z,79.58
2019-05-06T17:58:14.447Z,80.04
2019-05-06T18:00:44.730Z,80.68
2019-05-06T18:03:14.675Z,80.77
2019-05-06T18:05:44.467Z,80.37
2019-05-06T18:08:14.282Z,80.10
2019-05-06T18:10:44.251Z,80.24
2019-05-06T18:13:14.203Z,80.24
2019-05-06T18:15:44.078Z,79.67
2019-05-06T18:18:13.940Z,79.31
2019-05-06T18:20:43.812Z,79.14
2019-05-06T18:23:13.772Z,78.77
2019-05-06T18:25:44.014Z,79.04
2019-05-06T18:28:14.226Z,78.70
2019-05-06T18:30:44.241Z,78.90
2019-05-06T18:33:14.117Z,78.37
2019-05-06T18:35:44.069Z,78.52
2019-05-06T18:38:13.966Z,78.73
2019-05-06T18:40:43.819Z,79.10
2019-05-06T18:43:13.933Z,79.12
2019-05-06T18:45:43.874Z,78.51
2019-05-06T18:48:14.815Z,77.97
2019-05-06T18:50:44.744Z,76.71
2019-05-06T18:53:16.044Z,76.28
2019-05-06T18:55:45.981Z,75.79
2019-05-06T18:58:15.915Z,75.23
2019-05-06T19:00:46.134Z,73.57
2019-05-06T19:03:15.995Z,74.03
2019-05-06T19:05:46.441Z,71.66
2019-05-06T19:08:26.977Z,72.76
2019-05-06T19:10:58.341Z,73.14
2019-05-06T19:13:28.384Z,73.95
2019-05-06T19:15:58.344Z,73.79
2019-05-06T19:18:28.206Z,72.17
2019-05-06T19:20:58.133Z,72.89
2019-05-06T19:23:28.076Z,72.67
2019-05-06T19:25:58.204Z,72.13
2019-05-06T19:28:28.171Z,73.26
2019-05-06T19:30:57.997Z,73.27
2019-05-06T19:33:27.942Z,73.10
2019-05-06T19:35:57.893Z,73.33
2019-05-06T19:38:27.855Z,72.78
2019-05-06T19:40:57.886Z,73.42
2019-05-06T19:43:27.759Z,73.29
2019-05-06T19:45:57.696Z,73.28
2019-05-06T19:48:27.880Z,73.87
2019-05-06T19:50:58.003Z,74.65
2019-05-06T19:53:27.932Z,74.54
2019-05-06T19:55:57.725Z,74.33
2019-05-06T19:58:27.565Z,73.60
2019-05-06T20:00:57.524Z,73.72
2019-05-06T20:03:27.674Z,73.89
2019-05-06T20:06:32.401Z,73.61
2019-05-06T20:09:22.238Z,73.54
2019-05-06T20:11:54.493Z,73.91
2019-05-06T20:14:24.270Z,73.89
2019-05-06T20:16:54.495Z,73.76
2019-05-06T20:19:30.748Z,73.38
2019-05-06T20:21:56.133Z,73.96
2019-05-06T20:24:26.076Z,74.12
2019-05-06T20:26:56.189Z,74.33
2019-05-06T20:29:26.033Z,74.81
2019-05-06T20:31:55.902Z,74.98
2019-05-06T20:34:26.045Z,74.96
2019-05-06T20:36:55.999Z,74.98
2019-05-06T20:39:25.940Z,74.85
2019-05-06T20:41:55.804Z,74.47
2019-05-06T20:44:25.672Z,74.38
2019-05-06T20:46:55.524Z,74.73
2019-05-06T20:49:25.333Z,74.85
2019-05-06T20:51:55.213Z,74.89
2019-05-06T20:54:25.014Z,74.88
2019-05-06T20:56:55.065Z,75.21
2019-05-06T20:59:24.861Z,75.08
2019-05-06T21:01:55.429Z,75.09
2019-05-06T21:04:25.369Z,74.95
2019-05-06T21:06:55.642Z,75.03
2019-05-06T21:09:25.635Z,74.96
2019-05-06T21:11:55.779Z,74.95
2019-05-06T21:14:26.021Z,75.10
2019-05-06T21:16:55.868Z,75.12
2019-05-06T21:19:25.834Z,74.97
2019-05-06T21:21:55.777Z,75.29
2019-05-06T21:24:26.983Z,74.94
2019-05-06T21:26:57.345Z,75.08
2019-05-06T21:29:27.298Z,75.31
2019-05-06T21:31:57.160Z,75.37
2019-05-06T21:34:27.081Z,75.34
2019-05-06T21:36:57.032Z,75.47
2019-05-06T21:39:27.046Z,75.71
2019-05-06T21:41:56.874Z,75.92
2019-05-06T21:44:27.134Z,75.87
2019-05-06T21:46:57.408Z,76.29
2019-05-06T21:49:27.874Z,76.29
2019-05-06T21:51:57.847Z,75.95
2019-05-06T21:54:27.626Z,75.99
2019-05-06T21:56:57.571Z,75.98
2019-05-06T21:59:28.430Z,76.27
2019-05-06T22:01:58.398Z,76.27
2019-05-06T22:04:28.349Z,76.22
2019-05-06T22:06:58.203Z,75.70
2019-05-06T22:09:28.418Z,76.04
2019-05-06T22:11:58.639Z,76.48
2019-05-06T22:14:28.587Z,76.54
2019-05-06T22:16:58.537Z,76.35
2019-05-06T22:19:28.474Z,76.69
2019-05-06T22:22:03.569Z,76.79
2019-05-06T22:24:43.028Z,77.40
2019-05-06T22:27:14.224Z,77.86
2019-05-06T22:29:44.100Z,78.01
2019-05-06T22:32:14.926Z,78.27
2019-05-06T22:34:45.034Z,78.10
2019-05-06T22:37:14.991Z,77.69
2019-05-06T22:39:44.957Z,77.99
2019-05-06T22:42:15.534Z,78.44
2019-05-06T22:44:45.399Z,78.50
2019-05-06T22:47:15.199Z,78.37
2019-05-06T22:49:45.063Z,77.63
2019-05-06T22:52:14.944Z,77.15
2019-05-06T22:54:44.831Z,76.71
2019-05-06T22:57:14.703Z,76.44
2019-05-06T22:59:45.554Z,76.30
2019-05-06T23:02:37.478Z,75.91
2019-05-06T23:05:08.871Z,75.71
2019-05-06T23:07:38.807Z,75.55
2019-05-06T23:10:09.475Z,75.62
2019-05-06T23:12:39.406Z,75.45
2019-05-06T23:15:11.994Z,75.51
2019-05-06T23:17:42.145Z,75.69
2019-05-06T23:20:12.274Z,75.66
2019-05-06T23:22:42.379Z,75.64
2019-05-06T23:25:12.639Z,75.86
2019-05-06T23:27:44.212Z,75.97
2019-05-06T23:30:14.352Z,76.14
2019-05-06T23:32:44.252Z,76.41
2019-05-06T23:35:14.455Z,76.45
2019-05-06T23:38:20.188Z,76.02
2019-05-06T23:41:26.185Z,76.32
2019-05-06T23:44:45.443Z,76.63
2019-05-06T23:47:41.718Z,76.75
2019-05-06T23:50:47.766Z,77.06
2019-05-06T23:53:53.694Z,77.26
2019-05-06T23:56:44.246Z,76.86
2019-05-06T23:59:15.594Z,76.56
